sensor_id;sensor_type;location;lat;lon;timestamp;temperature;humidity
54126;DHT22;40360;52.992;6.796;2022-07-18T00:00:28;16.60;99.90
54126;DHT22;40360;52.992;6.796;2022-07-18T00:02:54;16.30;99.90
54126;DHT22;40360;52.992;6.796;2022-07-18T00:05:19;15.70;99.90
54126;DHT22;40360;52.992;6.796;2022-07-18T00:07:45;15.70;99.90
54126;DHT22;40360;52.992;6.796;2022-07-18T00:10:11;15.70;99.90
54126;DHT22;40360;52.992;6.796;2022-07-18T00:12:36;15.70;99.90
54126;DHT22;40360;52.992;6.796;2022-07-18T00:15:04;15.60;99.90
54126;DHT22;40360;52.992;6.796;2022-07-18T00:17:30;15.70;99.90
54126;DHT22;40360;52.992;6.796;2022-07-18T00:19:55;15.70;99.90
54126;DHT22;40360;52.992;6.796;2022-07-18T00:22:21;16.20;99.90
54126;DHT22;40360;52.992;6.796;2022-07-18T00:24:46;16.70;99.90
54126;DHT22;40360;52.992;6.796;2022-07-18T00:27:12;15.80;99.90
54126;DHT22;40360;52.992;6.796;2022-07-18T00:29:38;15.80;99.90
54126;DHT22;40360;52.992;6.796;2022-07-18T00:32:06;15.80;99.90
54126;DHT22;40360;52.992;6.796;2022-07-18T00:34:32;15.80;99.90
54126;DHT22;40360;52.992;6.796;2022-07-18T00:36:58;15.80;99.90
54126;DHT22;40360;52.992;6.796;2022-07-18T00:39:25;16.00;99.90
54126;DHT22;40360;52.992;6.796;2022-07-18T00:41:51;15.80;99.90
54126;DHT22;40360;52.992;6.796;2022-07-18T00:44:18;16.60;99.90
54126;DHT22;40360;52.992;6.796;2022-07-18T00:46:44;15.70;99.90
54126;DHT22;40360;52.992;6.796;2022-07-18T00:49:10;16.10;99.90
54126;DHT22;40360;52.992;6.796;2022-07-18T00:51:36;16.20;99.90
54126;DHT22;40360;52.992;6.796;2022-07-18T00:54:04;16.20;99.90
54126;DHT22;40360;52.992;6.796;2022-07-18T00:56:29;15.80;99.90
54126;DHT22;40360;52.992;6.796;2022-07-18T00:58:55;16.70;99.90
54126;DHT22;40360;52.992;6.796;2022-07-18T01:01:21;15.90;99.90
54126;DHT22;40360;52.992;6.796;2022-07-18T01:04:05;15.70;99.90
54126;DHT22;40360;52.992;6.796;2022-07-18T01:06:31;15.90;99.90
54126;DHT22;40360;52.992;6.796;2022-07-18T01:08:57;15.90;99.90
54126;DHT22;40360;52.992;6.796;2022-07-18T01:11:23;16.80;99.90
54126;DHT22;40360;52.992;6.796;2022-07-18T01:13:49;16.80;99.90
54126;DHT22;40360;52.992;6.796;2022-07-18T01:16:16;15.90;99.90
54126;DHT22;40360;52.992;6.796;2022-07-18T01:18:49;15.90;99.90
54126;DHT22;40360;52.992;6.796;2022-07-18T01:21:16;15.90;99.90
54126;DHT22;40360;52.992;6.796;2022-07-18T01:23:43;15.90;99.90
54126;DHT22;40360;52.992;6.796;2022-07-18T01:26:11;15.90;99.90
54126;DHT22;40360;52.992;6.796;2022-07-18T01:28:38;15.80;99.90
54126;DHT22;40360;52.992;6.796;2022-07-18T01:31:04;15.80;99.90
54126;DHT22;40360;52.992;6.796;2022-07-18T01:33:31;15.70;99.90
54126;DHT22;40360;52.992;6.796;2022-07-18T01:35:59;16.00;99.90
54126;DHT22;40360;52.992;6.796;2022-07-18T01:38:29;15.60;99.90
54126;DHT22;40360;52.992;6.796;2022-07-18T01:40:55;15.50;99.90
54126;DHT22;40360;52.992;6.796;2022-07-18T01:43:22;15.70;99.90
54126;DHT22;40360;52.992;6.796;2022-07-18T01:45:48;15.40;99.90
54126;DHT22;40360;52.992;6.796;2022-07-18T01:48:14;15.40;99.90
54126;DHT22;40360;52.992;6.796;2022-07-18T01:50:39;15.70;99.90
54126;DHT22;40360;52.992;6.796;2022-07-18T01:53:05;15.60;99.90
54126;DHT22;40360;52.992;6.796;2022-07-18T01:55:31;15.90;99.90
54126;DHT22;40360;52.992;6.796;2022-07-18T01:57:56;15.40;99.90
54126;DHT22;40360;52.992;6.796;2022-07-18T02:00:22;15.40;99.90
54126;DHT22;40360;52.992;6.796;2022-07-18T02:02:47;15.70;99.90
54126;DHT22;40360;52.992;6.796;2022-07-18T02:05:13;15.40;99.90
54126;DHT22;40360;52.992;6.796;2022-07-18T02:07:41;15.70;99.90
54126;DHT22;40360;52.992;6.796;2022-07-18T02:10:15;15.30;99.90
54126;DHT22;40360;52.992;6.796;2022-07-18T02:12:41;15.20;99.90
54126;DHT22;40360;52.992;6.796;2022-07-18T02:15:09;15.30;99.90
54126;DHT22;40360;52.992;6.796;2022-07-18T02:17:35;15.20;99.90
54126;DHT22;40360;52.992;6.796;2022-07-18T02:20:01;15.20;99.90
54126;DHT22;40360;52.992;6.796;2022-07-18T02:22:27;15.20;99.90
54126;DHT22;40360;52.992;6.796;2022-07-18T02:24:53;15.20;99.90
54126;DHT22;40360;52.992;6.796;2022-07-18T02:27:19;15.70;99.90
54126;DHT22;40360;52.992;6.796;2022-07-18T02:29:45;15.20;99.90
54126;DHT22;40360;52.992;6.796;2022-07-18T02:32:11;15.10;99.90
54126;DHT22;40360;52.992;6.796;2022-07-18T02:34:37;15.10;99.90
54126;DHT22;40360;52.992;6.796;2022-07-18T02:37:03;15.10;99.90
54126;DHT22;40360;52.992;6.796;2022-07-18T02:39:29;15.10;99.90
54126;DHT22;40360;52.992;6.796;2022-07-18T02:41:55;16.00;99.90
54126;DHT22;40360;52.992;6.796;2022-07-18T02:44:21;15.50;99.90
54126;DHT22;40360;52.992;6.796;2022-07-18T02:46:47;15.00;99.90
54126;DHT22;40360;52.992;6.796;2022-07-18T02:49:12;15.00;99.90
54126;DHT22;40360;52.992;6.796;2022-07-18T02:52:04;14.90;99.90
54126;DHT22;40360;52.992;6.796;2022-07-18T02:54:32;14.80;99.90
54126;DHT22;40360;52.992;6.796;2022-07-18T02:56:57;14.80;99.90
54126;DHT22;40360;52.992;6.796;2022-07-18T02:59:25;14.80;99.90
54126;DHT22;40360;52.992;6.796;2022-07-18T03:01:50;14.70;99.90
54126;DHT22;40360;52.992;6.796;2022-07-18T03:04:17;14.70;99.90
54126;DHT22;40360;52.992;6.796;2022-07-18T03:06:43;14.70;99.90
54126;DHT22;40360;52.992;6.796;2022-07-18T03:09:09;14.90;99.90
54126;DHT22;40360;52.992;6.796;2022-07-18T03:11:34;14.70;99.90
54126;DHT22;40360;52.992;6.796;2022-07-18T03:14:00;14.90;99.90
54126;DHT22;40360;52.992;6.796;2022-07-18T03:16:25;15.60;99.90
54126;DHT22;40360;52.992;6.796;2022-07-18T03:18:51;14.60;99.90
54126;DHT22;40360;52.992;6.796;2022-07-18T03:21:17;14.60;99.90
54126;DHT22;40360;52.992;6.796;2022-07-18T03:23:42;15.70;99.90
54126;DHT22;40360;52.992;6.796;2022-07-18T03:26:08;14.70;99.90
54126;DHT22;40360;52.992;6.796;2022-07-18T03:28:34;15.60;99.90
54126;DHT22;40360;52.992;6.796;2022-07-18T03:30:59;15.40;99.90
54126;DHT22;40360;52.992;6.796;2022-07-18T03:33:25;14.60;99.90
54126;DHT22;40360;52.992;6.796;2022-07-18T03:35:51;14.60;99.90
54126;DHT22;40360;52.992;6.796;2022-07-18T03:38:17;14.60;99.90
54126;DHT22;40360;52.992;6.796;2022-07-18T03:40:42;14.60;99.90
54126;DHT22;40360;52.992;6.796;2022-07-18T03:43:08;14.50;99.90
54126;DHT22;40360;52.992;6.796;2022-07-18T03:45:33;14.60;99.90
54126;DHT22;40360;52.992;6.796;2022-07-18T03:47:59;14.60;99.90
54126;DHT22;40360;52.992;6.796;2022-07-18T03:50:25;14.60;99.90
54126;DHT22;40360;52.992;6.796;2022-07-18T03:52:50;14.70;99.90
54126;DHT22;40360;52.992;6.796;2022-07-18T03:55:16;14.70;99.90
54126;DHT22;40360;52.992;6.796;2022-07-18T03:57:42;14.70;99.90
54126;DHT22;40360;52.992;6.796;2022-07-18T04:00:08;14.70;99.90
54126;DHT22;40360;52.992;6.796;2022-07-18T04:02:41;14.80;99.90
54126;DHT22;40360;52.992;6.796;2022-07-18T04:05:08;14.80;99.90
54126;DHT22;40360;52.992;6.796;2022-07-18T04:07:33;14.80;99.90
54126;DHT22;40360;52.992;6.796;2022-07-18T04:09:59;14.80;99.90
54126;DHT22;40360;52.992;6.796;2022-07-18T04:12:25;15.50;99.90
54126;DHT22;40360;52.992;6.796;2022-07-18T04:14:50;15.80;99.90
54126;DHT22;40360;52.992;6.796;2022-07-18T04:17:16;14.80;99.90
54126;DHT22;40360;52.992;6.796;2022-07-18T04:19:42;14.80;99.90
54126;DHT22;40360;52.992;6.796;2022-07-18T04:22:07;14.80;99.90
54126;DHT22;40360;52.992;6.796;2022-07-18T04:24:33;14.80;99.90
54126;DHT22;40360;52.992;6.796;2022-07-18T04:26:59;15.00;99.90
54126;DHT22;40360;52.992;6.796;2022-07-18T04:29:24;14.80;99.90
54126;DHT22;40360;52.992;6.796;2022-07-18T04:31:50;14.80;99.90
54126;DHT22;40360;52.992;6.796;2022-07-18T04:34:15;14.90;99.90
54126;DHT22;40360;52.992;6.796;2022-07-18T04:36:41;15.60;99.90
54126;DHT22;40360;52.992;6.796;2022-07-18T04:39:07;14.90;99.90
54126;DHT22;40360;52.992;6.796;2022-07-18T04:41:32;14.90;99.90
54126;DHT22;40360;52.992;6.796;2022-07-18T04:43:58;15.00;99.90
54126;DHT22;40360;52.992;6.796;2022-07-18T04:46:23;15.00;99.90
54126;DHT22;40360;52.992;6.796;2022-07-18T04:48:49;15.10;99.90
54126;DHT22;40360;52.992;6.796;2022-07-18T04:51:15;15.50;99.90
54126;DHT22;40360;52.992;6.796;2022-07-18T04:53:40;16.00;99.90
54126;DHT22;40360;52.992;6.796;2022-07-18T04:56:06;15.20;99.90
54126;DHT22;40360;52.992;6.796;2022-07-18T04:58:31;15.30;99.90
54126;DHT22;40360;52.992;6.796;2022-07-18T05:00:57;15.30;99.90
54126;DHT22;40360;52.992;6.796;2022-07-18T05:20:36;15.70;99.90
54126;DHT22;40360;52.992;6.796;2022-07-18T05:23:01;15.80;99.90
54126;DHT22;40360;52.992;6.796;2022-07-18T05:25:27;15.90;99.90
54126;DHT22;40360;52.992;6.796;2022-07-18T05:27:53;15.90;99.90
54126;DHT22;40360;52.992;6.796;2022-07-18T05:30:18;16.00;99.90
54126;DHT22;40360;52.992;6.796;2022-07-18T05:32:45;16.00;99.90
54126;DHT22;40360;52.992;6.796;2022-07-18T05:35:12;16.80;99.90
54126;DHT22;40360;52.992;6.796;2022-07-18T05:37:38;16.20;99.90
54126;DHT22;40360;52.992;6.796;2022-07-18T05:40:05;16.20;99.90
54126;DHT22;40360;52.992;6.796;2022-07-18T05:42:31;16.30;99.90
54126;DHT22;40360;52.992;6.796;2022-07-18T05:44:57;16.30;99.90
54126;DHT22;40360;52.992;6.796;2022-07-18T05:47:22;16.40;99.90
54126;DHT22;40360;52.992;6.796;2022-07-18T05:49:48;16.90;99.90
54126;DHT22;40360;52.992;6.796;2022-07-18T05:52:13;17.40;99.90
54126;DHT22;40360;52.992;6.796;2022-07-18T05:54:39;16.70;99.90
54126;DHT22;40360;52.992;6.796;2022-07-18T05:57:05;16.80;99.90
54126;DHT22;40360;52.992;6.796;2022-07-18T05:59:30;16.90;99.90
54126;DHT22;40360;52.992;6.796;2022-07-18T06:01:56;17.00;99.90
54126;DHT22;40360;52.992;6.796;2022-07-18T06:04:22;17.00;99.90
54126;DHT22;40360;52.992;6.796;2022-07-18T06:06:47;17.10;99.90
54126;DHT22;40360;52.992;6.796;2022-07-18T06:09:16;17.20;99.90
54126;DHT22;40360;52.992;6.796;2022-07-18T06:11:41;17.30;99.90
54126;DHT22;40360;52.992;6.796;2022-07-18T06:14:07;17.40;99.90
54126;DHT22;40360;52.992;6.796;2022-07-18T06:16:33;17.40;99.90
54126;DHT22;40360;52.992;6.796;2022-07-18T06:18:59;17.40;99.90
54126;DHT22;40360;52.992;6.796;2022-07-18T06:21:24;18.10;99.90
54126;DHT22;40360;52.992;6.796;2022-07-18T06:23:50;17.60;99.90
54126;DHT22;40360;52.992;6.796;2022-07-18T06:26:16;17.70;99.90
54126;DHT22;40360;52.992;6.796;2022-07-18T06:28:41;17.80;99.90
54126;DHT22;40360;52.992;6.796;2022-07-18T06:31:07;18.50;99.90
54126;DHT22;40360;52.992;6.796;2022-07-18T06:33:32;18.10;99.90
54126;DHT22;40360;52.992;6.796;2022-07-18T06:35:58;18.50;99.90
54126;DHT22;40360;52.992;6.796;2022-07-18T06:38:24;18.90;99.90
54126;DHT22;40360;52.992;6.796;2022-07-18T06:40:49;18.50;99.90
54126;DHT22;40360;52.992;6.796;2022-07-18T06:43:15;18.50;99.90
54126;DHT22;40360;52.992;6.796;2022-07-18T06:45:48;18.70;99.90
54126;DHT22;40360;52.992;6.796;2022-07-18T06:48:15;18.70;99.90
54126;DHT22;40360;52.992;6.796;2022-07-18T06:50:41;19.50;99.90
54126;DHT22;40360;52.992;6.796;2022-07-18T06:53:06;19.60;99.90
54126;DHT22;40360;52.992;6.796;2022-07-18T06:55:32;19.60;99.90
54126;DHT22;40360;52.992;6.796;2022-07-18T06:57:57;19.60;99.90
54126;DHT22;40360;52.992;6.796;2022-07-18T07:00:23;19.50;99.90
54126;DHT22;40360;52.992;6.796;2022-07-18T07:02:49;19.60;99.90
54126;DHT22;40360;52.992;6.796;2022-07-18T07:05:17;19.80;99.90
54126;DHT22;40360;52.992;6.796;2022-07-18T07:07:43;20.50;99.90
54126;DHT22;40360;52.992;6.796;2022-07-18T07:10:09;20.30;99.90
54126;DHT22;40360;52.992;6.796;2022-07-18T07:12:42;20.10;99.90
54126;DHT22;40360;52.992;6.796;2022-07-18T07:15:09;20.30;99.90
54126;DHT22;40360;52.992;6.796;2022-07-18T07:17:36;20.40;99.90
54126;DHT22;40360;52.992;6.796;2022-07-18T07:20:03;20.50;99.90
54126;DHT22;40360;52.992;6.796;2022-07-18T07:22:29;20.60;99.90
54126;DHT22;40360;52.992;6.796;2022-07-18T07:24:55;21.40;99.90
54126;DHT22;40360;52.992;6.796;2022-07-18T07:27:20;21.00;99.90
54126;DHT22;40360;52.992;6.796;2022-07-18T07:29:46;20.90;99.90
54126;DHT22;40360;52.992;6.796;2022-07-18T07:32:11;21.10;99.90
54126;DHT22;40360;52.992;6.796;2022-07-18T07:34:37;21.20;99.90
54126;DHT22;40360;52.992;6.796;2022-07-18T07:37:02;21.40;99.90
54126;DHT22;40360;52.992;6.796;2022-07-18T07:39:28;22.00;99.90
54126;DHT22;40360;52.992;6.796;2022-07-18T07:41:53;21.70;99.90
54126;DHT22;40360;52.992;6.796;2022-07-18T07:44:19;21.90;99.90
54126;DHT22;40360;52.992;6.796;2022-07-18T07:46:44;22.40;99.90
54126;DHT22;40360;52.992;6.796;2022-07-18T07:49:10;22.20;99.90
54126;DHT22;40360;52.992;6.796;2022-07-18T07:51:36;22.40;99.90
54126;DHT22;40360;52.992;6.796;2022-07-18T07:54:02;22.50;99.90
54126;DHT22;40360;52.992;6.796;2022-07-18T07:56:28;22.60;99.90
54126;DHT22;40360;52.992;6.796;2022-07-18T07:58:53;22.70;99.90
54126;DHT22;40360;52.992;6.796;2022-07-18T08:01:19;22.70;99.90
54126;DHT22;40360;52.992;6.796;2022-07-18T08:03:45;22.80;99.90
54126;DHT22;40360;52.992;6.796;2022-07-18T08:06:13;22.60;99.90
54126;DHT22;40360;52.992;6.796;2022-07-18T08:08:39;22.50;99.90
54126;DHT22;40360;52.992;6.796;2022-07-18T08:11:05;22.50;99.90
54126;DHT22;40360;52.992;6.796;2022-07-18T08:13:30;22.70;99.90
54126;DHT22;40360;52.992;6.796;2022-07-18T08:15:56;22.80;99.90
54126;DHT22;40360;52.992;6.796;2022-07-18T08:18:21;23.00;99.90
54126;DHT22;40360;52.992;6.796;2022-07-18T08:20:47;23.30;99.90
54126;DHT22;40360;52.992;6.796;2022-07-18T08:23:13;23.50;99.90
54126;DHT22;40360;52.992;6.796;2022-07-18T08:25:41;23.60;99.90
54126;DHT22;40360;52.992;6.796;2022-07-18T08:28:07;23.60;99.90
54126;DHT22;40360;52.992;6.796;2022-07-18T08:30:33;23.60;99.90
54126;DHT22;40360;52.992;6.796;2022-07-18T08:32:59;23.60;99.90
54126;DHT22;40360;52.992;6.796;2022-07-18T08:35:26;23.70;99.90
54126;DHT22;40360;52.992;6.796;2022-07-18T08:37:52;23.80;99.90
54126;DHT22;40360;52.992;6.796;2022-07-18T08:40:18;23.70;99.80
54126;DHT22;40360;52.992;6.796;2022-07-18T08:42:44;24.00;99.60
54126;DHT22;40360;52.992;6.796;2022-07-18T08:45:10;24.40;99.30
54126;DHT22;40360;52.992;6.796;2022-07-18T08:47:36;24.40;98.80
54126;DHT22;40360;52.992;6.796;2022-07-18T08:50:02;24.60;98.10
54126;DHT22;40360;52.992;6.796;2022-07-18T08:52:28;24.70;97.70
54126;DHT22;40360;52.992;6.796;2022-07-18T08:54:55;24.80;97.90
54126;DHT22;40360;52.992;6.796;2022-07-18T08:57:22;25.20;96.60
54126;DHT22;40360;52.992;6.796;2022-07-18T08:59:47;25.20;96.50
54126;DHT22;40360;52.992;6.796;2022-07-18T09:02:13;25.30;96.70
54126;DHT22;40360;52.992;6.796;2022-07-18T09:04:41;25.30;97.00
54126;DHT22;40360;52.992;6.796;2022-07-18T09:07:08;25.60;96.50
54126;DHT22;40360;52.992;6.796;2022-07-18T09:09:35;25.70;96.20
54126;DHT22;40360;52.992;6.796;2022-07-18T09:12:10;25.80;96.20
54126;DHT22;40360;52.992;6.796;2022-07-18T09:14:39;25.80;95.50
54126;DHT22;40360;52.992;6.796;2022-07-18T09:17:08;26.10;96.10
54126;DHT22;40360;52.992;6.796;2022-07-18T09:19:34;25.90;95.70
54126;DHT22;40360;52.992;6.796;2022-07-18T09:22:23;25.70;95.10
54126;DHT22;40360;52.992;6.796;2022-07-18T09:25:16;25.80;95.40
54126;DHT22;40360;52.992;6.796;2022-07-18T09:27:46;25.60;94.80
54126;DHT22;40360;52.992;6.796;2022-07-18T09:30:25;25.60;95.30
54126;DHT22;40360;52.992;6.796;2022-07-18T09:35:46;25.80;94.10
54126;DHT22;40360;52.992;6.796;2022-07-18T09:38:14;25.80;93.50
54126;DHT22;40360;52.992;6.796;2022-07-18T09:43:10;26.00;93.30
54126;DHT22;40360;52.992;6.796;2022-07-18T09:45:45;26.00;93.90
54126;DHT22;40360;52.992;6.796;2022-07-18T09:48:14;26.20;94.00
54126;DHT22;40360;52.992;6.796;2022-07-18T09:50:56;26.90;94.80
54126;DHT22;40360;52.992;6.796;2022-07-18T09:53:39;26.60;93.50
54126;DHT22;40360;52.992;6.796;2022-07-18T09:56:12;26.70;92.70
54126;DHT22;40360;52.992;6.796;2022-07-18T09:58:40;26.90;93.20
54126;DHT22;40360;52.992;6.796;2022-07-18T10:01:09;27.20;93.10
54126;DHT22;40360;52.992;6.796;2022-07-18T10:03:35;27.10;92.60
54126;DHT22;40360;52.992;6.796;2022-07-18T10:06:02;27.20;92.60
54126;DHT22;40360;52.992;6.796;2022-07-18T10:08:33;27.20;92.90
54126;DHT22;40360;52.992;6.796;2022-07-18T10:11:00;27.30;92.10
54126;DHT22;40360;52.992;6.796;2022-07-18T10:13:27;27.30;92.40
54126;DHT22;40360;52.992;6.796;2022-07-18T10:15:53;27.50;91.60
54126;DHT22;40360;52.992;6.796;2022-07-18T10:18:25;27.60;91.10
54126;DHT22;40360;52.992;6.796;2022-07-18T10:23:40;28.00;90.80
54126;DHT22;40360;52.992;6.796;2022-07-18T10:26:14;28.00;89.80
54126;DHT22;40360;52.992;6.796;2022-07-18T10:31:34;28.30;91.00
54126;DHT22;40360;52.992;6.796;2022-07-18T10:36:38;28.60;90.30
54126;DHT22;40360;52.992;6.796;2022-07-18T10:39:13;28.60;86.90
54126;DHT22;40360;52.992;6.796;2022-07-18T10:47:06;28.90;86.90
54126;DHT22;40360;52.992;6.796;2022-07-18T10:57:34;29.30;82.00
54126;DHT22;40360;52.992;6.796;2022-07-18T11:02:39;29.80;84.40
54126;DHT22;40360;52.992;6.796;2022-07-18T11:18:21;30.40;77.60
54126;DHT22;40360;52.992;6.796;2022-07-18T11:20:47;30.20;78.70
54126;DHT22;40360;52.992;6.796;2022-07-18T11:23:41;30.50;77.20
54126;DHT22;40360;52.992;6.796;2022-07-18T11:26:14;30.30;75.00
54126;DHT22;40360;52.992;6.796;2022-07-18T11:28:41;30.30;75.10
54126;DHT22;40360;52.992;6.796;2022-07-18T11:31:11;30.40;74.30
54126;DHT22;40360;52.992;6.796;2022-07-18T11:33:44;30.60;75.00
54126;DHT22;40360;52.992;6.796;2022-07-18T11:36:15;30.80;75.40
54126;DHT22;40360;52.992;6.796;2022-07-18T11:38:51;30.70;74.90
54126;DHT22;40360;52.992;6.796;2022-07-18T11:41:17;30.70;74.00
54126;DHT22;40360;52.992;6.796;2022-07-18T11:43:44;30.80;73.80
54126;DHT22;40360;52.992;6.796;2022-07-18T11:46:18;30.70;73.00
54126;DHT22;40360;52.992;6.796;2022-07-18T11:48:50;30.60;72.10
54126;DHT22;40360;52.992;6.796;2022-07-18T11:51:22;31.20;74.10
54126;DHT22;40360;52.992;6.796;2022-07-18T11:53:49;31.00;76.40
54126;DHT22;40360;52.992;6.796;2022-07-18T11:56:16;31.90;75.60
54126;DHT22;40360;52.992;6.796;2022-07-18T11:58:43;31.40;72.70
54126;DHT22;40360;52.992;6.796;2022-07-18T12:01:10;31.60;72.00
54126;DHT22;40360;52.992;6.796;2022-07-18T12:03:39;31.50;70.00
54126;DHT22;40360;52.992;6.796;2022-07-18T12:06:17;31.40;73.00
54126;DHT22;40360;52.992;6.796;2022-07-18T12:08:51;31.70;71.70
54126;DHT22;40360;52.992;6.796;2022-07-18T12:13:57;31.90;69.50
54126;DHT22;40360;52.992;6.796;2022-07-18T12:16:37;31.80;69.50
54126;DHT22;40360;52.992;6.796;2022-07-18T12:19:07;31.90;70.20
54126;DHT22;40360;52.992;6.796;2022-07-18T12:21:57;31.90;70.20
54126;DHT22;40360;52.992;6.796;2022-07-18T12:27:15;32.00;71.10
54126;DHT22;40360;52.992;6.796;2022-07-18T12:32:29;31.80;69.60
54126;DHT22;40360;52.992;6.796;2022-07-18T12:35:06;31.80;71.60
54126;DHT22;40360;52.992;6.796;2022-07-18T12:37:32;31.50;69.90
54126;DHT22;40360;52.992;6.796;2022-07-18T12:40:10;31.50;70.00
54126;DHT22;40360;52.992;6.796;2022-07-18T12:42:39;31.30;69.00
54126;DHT22;40360;52.992;6.796;2022-07-18T12:45:07;31.10;71.00
54126;DHT22;40360;52.992;6.796;2022-07-18T12:47:33;30.90;70.40
54126;DHT22;40360;52.992;6.796;2022-07-18T12:49:59;30.90;71.20
54126;DHT22;40360;52.992;6.796;2022-07-18T12:52:25;30.60;70.10
54126;DHT22;40360;52.992;6.796;2022-07-18T12:54:51;30.70;70.60
54126;DHT22;40360;52.992;6.796;2022-07-18T12:57:18;30.70;70.00
54126;DHT22;40360;52.992;6.796;2022-07-18T12:59:44;31.30;70.40
54126;DHT22;40360;52.992;6.796;2022-07-18T13:02:10;30.90;69.80
54126;DHT22;40360;52.992;6.796;2022-07-18T13:04:36;30.80;69.30
54126;DHT22;40360;52.992;6.796;2022-07-18T13:07:02;30.70;68.90
54126;DHT22;40360;52.992;6.796;2022-07-18T13:09:27;30.60;70.40
54126;DHT22;40360;52.992;6.796;2022-07-18T13:11:53;30.40;70.30
54126;DHT22;40360;52.992;6.796;2022-07-18T13:14:18;30.40;70.40
54126;DHT22;40360;52.992;6.796;2022-07-18T13:16:45;30.10;69.60
54126;DHT22;40360;52.992;6.796;2022-07-18T13:19:13;29.80;69.90
54126;DHT22;40360;52.992;6.796;2022-07-18T13:21:38;30.00;71.30
54126;DHT22;40360;52.992;6.796;2022-07-18T13:24:04;30.20;70.70
54126;DHT22;40360;52.992;6.796;2022-07-18T13:26:30;30.60;71.90
54126;DHT22;40360;52.992;6.796;2022-07-18T13:28:56;30.80;70.10
54126;DHT22;40360;52.992;6.796;2022-07-18T13:31:21;31.30;72.60
54126;DHT22;40360;52.992;6.796;2022-07-18T13:33:47;31.80;71.60
54126;DHT22;40360;52.992;6.796;2022-07-18T13:36:13;32.20;71.40
54126;DHT22;40360;52.992;6.796;2022-07-18T13:38:39;32.50;69.60
54126;DHT22;40360;52.992;6.796;2022-07-18T13:41:05;32.80;70.10
54126;DHT22;40360;52.992;6.796;2022-07-18T13:43:31;32.90;69.20
54126;DHT22;40360;52.992;6.796;2022-07-18T13:45:56;32.60;67.60
54126;DHT22;40360;52.992;6.796;2022-07-18T13:48:22;32.70;68.30
54126;DHT22;40360;52.992;6.796;2022-07-18T13:50:48;32.60;69.80
54126;DHT22;40360;52.992;6.796;2022-07-18T13:53:14;32.40;71.50
54126;DHT22;40360;52.992;6.796;2022-07-18T13:55:39;31.90;71.90
54126;DHT22;40360;52.992;6.796;2022-07-18T13:58:05;32.20;70.30
54126;DHT22;40360;52.992;6.796;2022-07-18T14:00:30;32.30;72.10
54126;DHT22;40360;52.992;6.796;2022-07-18T14:02:56;32.30;71.50
54126;DHT22;40360;52.992;6.796;2022-07-18T14:05:22;32.30;68.90
54126;DHT22;40360;52.992;6.796;2022-07-18T14:07:47;32.10;67.60
54126;DHT22;40360;52.992;6.796;2022-07-18T14:10:14;31.80;67.00
54126;DHT22;40360;52.992;6.796;2022-07-18T14:12:40;31.80;67.90
54126;DHT22;40360;52.992;6.796;2022-07-18T14:15:06;32.10;71.80
54126;DHT22;40360;52.992;6.796;2022-07-18T14:17:32;32.60;70.60
54126;DHT22;40360;52.992;6.796;2022-07-18T14:19:58;33.10;71.50
54126;DHT22;40360;52.992;6.796;2022-07-18T14:22:24;33.50;69.10
54126;DHT22;40360;52.992;6.796;2022-07-18T14:24:49;33.50;67.60
54126;DHT22;40360;52.992;6.796;2022-07-18T14:27:15;34.10;69.10
54126;DHT22;40360;52.992;6.796;2022-07-18T14:29:40;34.30;68.20
54126;DHT22;40360;52.992;6.796;2022-07-18T14:32:06;34.60;66.90
54126;DHT22;40360;52.992;6.796;2022-07-18T14:34:34;34.30;66.50
54126;DHT22;40360;52.992;6.796;2022-07-18T14:37:00;33.70;66.50
54126;DHT22;40360;52.992;6.796;2022-07-18T14:39:25;33.40;67.60
54126;DHT22;40360;52.992;6.796;2022-07-18T14:41:52;33.10;67.10
54126;DHT22;40360;52.992;6.796;2022-07-18T14:44:17;32.70;66.90
54126;DHT22;40360;52.992;6.796;2022-07-18T14:46:43;32.60;67.10
54126;DHT22;40360;52.992;6.796;2022-07-18T14:49:09;32.30;67.10
54126;DHT22;40360;52.992;6.796;2022-07-18T14:51:34;32.30;67.00
54126;DHT22;40360;52.992;6.796;2022-07-18T14:54:00;32.80;69.20
54126;DHT22;40360;52.992;6.796;2022-07-18T14:56:26;33.20;70.50
54126;DHT22;40360;52.992;6.796;2022-07-18T14:58:51;33.90;71.50
54126;DHT22;40360;52.992;6.796;2022-07-18T15:01:17;34.40;71.40
54126;DHT22;40360;52.992;6.796;2022-07-18T15:03:45;34.50;67.70
54126;DHT22;40360;52.992;6.796;2022-07-18T15:06:11;34.70;67.60
54126;DHT22;40360;52.992;6.796;2022-07-18T15:08:36;35.00;66.70
54126;DHT22;40360;52.992;6.796;2022-07-18T15:11:02;34.40;68.20
54126;DHT22;40360;52.992;6.796;2022-07-18T15:13:28;34.60;67.70
54126;DHT22;40360;52.992;6.796;2022-07-18T15:15:53;35.00;68.70
54126;DHT22;40360;52.992;6.796;2022-07-18T15:18:19;35.60;69.70
54126;DHT22;40360;52.992;6.796;2022-07-18T15:20:45;35.50;67.70
54126;DHT22;40360;52.992;6.796;2022-07-18T15:23:11;36.00;69.60
54126;DHT22;40360;52.992;6.796;2022-07-18T15:25:36;35.90;67.20
54126;DHT22;40360;52.992;6.796;2022-07-18T15:28:02;36.00;65.70
54126;DHT22;40360;52.992;6.796;2022-07-18T15:30:27;36.20;65.40
54126;DHT22;40360;52.992;6.796;2022-07-18T15:32:53;36.20;66.30
54126;DHT22;40360;52.992;6.796;2022-07-18T15:35:19;35.90;65.30
54126;DHT22;40360;52.992;6.796;2022-07-18T15:37:44;35.80;65.60
54126;DHT22;40360;52.992;6.796;2022-07-18T15:40:10;36.10;65.40
54126;DHT22;40360;52.992;6.796;2022-07-18T15:42:36;36.30;65.10
54126;DHT22;40360;52.992;6.796;2022-07-18T15:45:01;36.30;64.70
54126;DHT22;40360;52.992;6.796;2022-07-18T15:47:27;36.00;63.60
54126;DHT22;40360;52.992;6.796;2022-07-18T15:49:53;36.40;66.90
54126;DHT22;40360;52.992;6.796;2022-07-18T15:52:18;36.10;63.10
54126;DHT22;40360;52.992;6.796;2022-07-18T15:54:44;36.20;63.80
54126;DHT22;40360;52.992;6.796;2022-07-18T15:57:09;36.40;65.10
54126;DHT22;40360;52.992;6.796;2022-07-18T15:59:35;36.20;65.00
54126;DHT22;40360;52.992;6.796;2022-07-18T16:02:02;36.50;65.90
54126;DHT22;40360;52.992;6.796;2022-07-18T16:04:28;36.80;64.90
54126;DHT22;40360;52.992;6.796;2022-07-18T16:06:53;37.10;63.60
54126;DHT22;40360;52.992;6.796;2022-07-18T16:09:19;37.50;63.60
54126;DHT22;40360;52.992;6.796;2022-07-18T16:11:46;37.70;65.10
54126;DHT22;40360;52.992;6.796;2022-07-18T16:14:12;37.40;63.30
54126;DHT22;40360;52.992;6.796;2022-07-18T16:16:38;37.30;63.00
54126;DHT22;40360;52.992;6.796;2022-07-18T16:19:08;37.30;63.10
54126;DHT22;40360;52.992;6.796;2022-07-18T16:21:35;37.00;62.90
54126;DHT22;40360;52.992;6.796;2022-07-18T16:24:01;36.60;62.90
54126;DHT22;40360;52.992;6.796;2022-07-18T16:26:27;36.10;64.30
54126;DHT22;40360;52.992;6.796;2022-07-18T16:28:53;36.00;63.10
54126;DHT22;40360;52.992;6.796;2022-07-18T16:31:19;35.50;63.20
54126;DHT22;40360;52.992;6.796;2022-07-18T16:33:45;35.60;63.80
54126;DHT22;40360;52.992;6.796;2022-07-18T16:36:10;35.70;63.40